createdAt,value
2022-08-26T00:01:37.097Z,0.13
2022-08-26T00:04:04.107Z,0.50
2022-08-26T00:06:32.695Z,0.20
2022-08-26T00:08:59.835Z,0.10
2022-08-26T00:11:27.212Z,0.20
2022-08-26T00:13:57.911Z,0.32
2022-08-26T00:16:26.773Z,0.20
2022-08-26T00:18:54.383Z,0.20
2022-08-26T00:21:21.150Z,0.25
2022-08-26T00:23:48.905Z,0.10
2022-08-26T00:26:15.790Z,0.30
2022-08-26T00:28:42.766Z,0.82
2022-08-26T00:31:10.952Z,0.30
2022-08-26T00:33:39.571Z,0.20
2022-08-26T00:36:07.223Z,0.28
2022-08-26T00:38:37.881Z,0.30
2022-08-26T00:41:06.540Z,0.20
2022-08-26T00:43:46.104Z,0.70
2022-08-26T00:46:17.534Z,0.10
2022-08-26T00:48:46.162Z,0.63
2022-08-26T00:51:19.391Z,0.60
2022-08-26T00:53:51.157Z,0.03
2022-08-26T00:56:34.018Z,0.40
2022-08-26T00:59:11.276Z,0.20
2022-08-26T01:01:42.434Z,0.30
2022-08-26T01:04:16.402Z,0.60
2022-08-26T01:06:44.306Z,0.13
2022-08-26T01:09:11.907Z,0.20
2022-08-26T01:11:38.937Z,0.25
2022-08-26T01:14:07.136Z,1.35
2022-08-26T01:16:35.940Z,0.57
2022-08-26T01:19:10.803Z,0.20
2022-08-26T01:21:48.560Z,0.57
2022-08-26T01:24:16.003Z,0.30
2022-08-26T01:26:43.406Z,0.30
2022-08-26T01:29:13.859Z,0.40
2022-08-26T01:31:44.661Z,0.57
2022-08-26T01:34:17.419Z,0.25
2022-08-26T01:36:49.229Z,0.20
2022-08-26T01:39:18.585Z,0.30
2022-08-26T01:41:45.625Z,0.28
2022-08-26T01:44:18.653Z,0.65
2022-08-26T01:46:47.340Z,0.35
2022-08-26T01:49:14.675Z,0.30
2022-08-26T01:51:44.470Z,0.57
2022-08-26T01:54:13.779Z,0.40
2022-08-26T01:56:40.912Z,0.30
2022-08-26T01:59:10.870Z,0.35
2022-08-26T02:01:39.378Z,0.40
2022-08-26T02:04:26.188Z,0.60
2022-08-26T02:06:53.626Z,0.40
2022-08-26T02:09:21.348Z,0.20
2022-08-26T02:11:48.594Z,0.20
2022-08-26T02:14:22.319Z,0.57
2022-08-26T02:16:51.934Z,0.30
2022-08-26T02:19:24.602Z,0.10
2022-08-26T02:21:52.304Z,0.15
2022-08-26T02:24:27.228Z,1.08
2022-08-26T02:26:55.115Z,0.30
2022-08-26T02:29:25.918Z,0.30
2022-08-26T02:31:53.299Z,0.50
2022-08-26T02:34:22.951Z,0.10
2022-08-26T02:36:49.814Z,0.30
2022-08-26T02:39:22.142Z,0.30
2022-08-26T02:41:49.417Z,0.20
2022-08-26T02:44:16.130Z,0.20
2022-08-26T02:46:46.819Z,0.20
2022-08-26T02:49:15.340Z,0.20
2022-08-26T02:51:43.962Z,0.10
2022-08-26T02:54:10.773Z,0.28
2022-08-26T02:56:37.563Z,0.20
2022-08-26T02:59:04.352Z,0.50
2022-08-26T03:01:34.888Z,0.25
2022-08-26T03:04:03.566Z,0.43
2022-08-26T03:06:30.947Z,0.35
2022-08-26T03:08:57.795Z,0.38
2022-08-26T03:11:27.624Z,0.30
2022-08-26T03:13:58.942Z,0.20
2022-08-26T03:16:25.668Z,0.30
2022-08-26T03:19:00.522Z,0.30
2022-08-26T03:21:27.210Z,0.32
2022-08-26T03:23:53.950Z,0.38
2022-08-26T03:26:21.138Z,0.32
2022-08-26T03:29:06.425Z,0.20
2022-08-26T03:31:33.401Z,0.10
2022-08-26T03:34:00.114Z,0.30
2022-08-26T03:36:27.334Z,0.45
2022-08-26T03:38:54.418Z,0.20
2022-08-26T03:41:25.672Z,0.20
2022-08-26T03:43:53.452Z,0.38
2022-08-26T03:46:20.647Z,0.82
2022-08-26T03:48:47.851Z,0.20
2022-08-26T03:51:19.049Z,0.20
2022-08-26T03:53:46.470Z,0.20
2022-08-26T03:56:13.203Z,0.40
2022-08-26T03:58:42.962Z,0.20
2022-08-26T04:01:10.051Z,0.73
2022-08-26T04:03:55.392Z,0.32
2022-08-26T04:06:22.449Z,0.50
2022-08-26T04:08:51.147Z,0.57
2022-08-26T04:11:19.910Z,0.52
2022-08-26T04:13:47.667Z,0.30
2022-08-26T04:16:17.894Z,0.68
2022-08-26T04:18:46.917Z,0.35
2022-08-26T04:21:15.321Z,0.52
2022-08-26T04:23:47.276Z,0.20
2022-08-26T04:26:16.105Z,0.20
2022-08-26T04:28:42.894Z,0.65
2022-08-26T04:31:14.892Z,0.22
2022-08-26T04:33:43.387Z,0.20
2022-08-26T04:36:10.422Z,0.10
2022-08-26T04:38:37.243Z,0.45
2022-08-26T04:41:05.412Z,0.38
2022-08-26T04:43:32.339Z,0.65
2022-08-26T04:46:04.096Z,0.40
2022-08-26T04:48:31.948Z,0.70
2022-08-26T04:50:59.910Z,0.17
2022-08-26T04:53:27.941Z,0.10
2022-08-26T04:55:55.206Z,0.35
2022-08-26T04:58:24.829Z,0.47
2022-08-26T05:00:53.897Z,0.55
2022-08-26T05:03:21.168Z,0.30
2022-08-26T05:05:52.020Z,0.52
2022-08-26T05:08:20.380Z,0.20
2022-08-26T05:10:50.674Z,0.40
2022-08-26T05:15:48.343Z,0.73
2022-08-26T05:18:17.701Z,0.88
2022-08-26T05:20:49.689Z,0.50
2022-08-26T05:23:17.198Z,0.57
2022-08-26T05:25:46.530Z,0.47
2022-08-26T05:28:15.273Z,0.17
2022-08-26T05:30:42.596Z,0.60
2022-08-26T05:33:11.626Z,1.13
2022-08-26T05:35:39.228Z,0.30
2022-08-26T05:38:12.441Z,0.20
2022-08-26T05:40:45.577Z,0.30
2022-08-26T05:43:13.987Z,0.25
2022-08-26T05:45:46.501Z,0.38
2022-08-26T05:48:16.143Z,0.30
2022-08-26T05:50:46.372Z,0.52
2022-08-26T05:53:15.175Z,0.25
2022-08-26T05:55:52.525Z,0.20
2022-08-26T05:58:21.194Z,0.55
2022-08-26T06:01:14.530Z,0.75
2022-08-26T06:03:44.782Z,0.88
2022-08-26T06:06:15.725Z,0.60
2022-08-26T06:08:47.862Z,0.40
2022-08-26T06:11:18.789Z,0.40
2022-08-26T06:13:46.418Z,0.50
2022-08-26T06:16:15.598Z,0.50
2022-08-26T06:18:46.108Z,0.30
2022-08-26T06:21:15.438Z,0.45
2022-08-26T06:24:02.162Z,0.37
2022-08-26T06:26:29.790Z,0.10
2022-08-26T06:28:57.162Z,0.38
2022-08-26T06:31:25.323Z,0.45
2022-08-26T06:33:52.562Z,0.40
2022-08-26T06:36:22.978Z,0.20
2022-08-26T06:38:51.489Z,1.00
2022-08-26T06:41:23.193Z,0.30
2022-08-26T06:43:50.487Z,0.35
2022-08-26T06:46:19.160Z,1.30
2022-08-26T06:48:46.523Z,0.50
2022-08-26T06:51:16.017Z,0.55
2022-08-26T06:53:45.693Z,0.40
2022-08-26T06:56:13.915Z,0.65
2022-08-26T06:58:41.154Z,0.52
2022-08-26T07:01:29.495Z,0.63
2022-08-26T07:03:58.130Z,0.60
2022-08-26T07:06:26.062Z,0.40
2022-08-26T07:08:54.679Z,0.30
2022-08-26T07:11:22.028Z,0.43
2022-08-26T07:13:51.231Z,0.57
2022-08-26T07:16:18.840Z,0.47
2022-08-26T07:18:52.980Z,0.40
2022-08-26T07:21:20.930Z,0.32
2022-08-26T07:23:49.350Z,0.45
2022-08-26T07:26:20.556Z,0.60
2022-08-26T07:28:50.594Z,0.52
2022-08-26T07:31:22.882Z,0.28
2022-08-26T07:33:49.787Z,0.50
2022-08-26T07:36:19.161Z,0.82
2022-08-26T07:38:54.236Z,0.63
2022-08-26T07:41:27.079Z,0.30
2022-08-26T07:43:54.561Z,1.02
2022-08-26T07:46:27.520Z,0.50
2022-08-26T07:48:58.105Z,0.50
2022-08-26T07:51:25.842Z,0.60
2022-08-26T07:53:53.385Z,0.80
2022-08-26T07:56:23.452Z,0.93
2022-08-26T08:01:23.654Z,0.88
2022-08-26T08:03:54.053Z,0.95
2022-08-26T08:06:23.391Z,0.65
2022-08-26T08:08:55.183Z,0.63
2022-08-26T08:11:23.056Z,0.35
2022-08-26T08:13:55.920Z,0.82
2022-08-26T08:16:25.998Z,0.85
2022-08-26T08:18:55.609Z,0.85
2022-08-26T08:21:24.713Z,1.02
2022-08-26T08:23:56.490Z,0.73
2022-08-26T08:26:24.152Z,0.98
2022-08-26T08:28:53.921Z,0.93
2022-08-26T08:34:13.765Z,0.90
2022-08-26T08:36:40.458Z,0.88
2022-08-26T08:39:09.582Z,0.68
2022-08-26T08:42:09.001Z,0.77
2022-08-26T08:44:38.547Z,0.70
2022-08-26T08:47:17.791Z,1.48
2022-08-26T08:49:45.155Z,0.85
2022-08-26T08:52:29.086Z,0.98
2022-08-26T08:54:56.138Z,0.80
2022-08-26T08:57:50.404Z,0.65
2022-08-26T09:00:30.563Z,1.13
2022-08-26T09:03:03.983Z,1.40
2022-08-26T09:05:40.229Z,1.15
2022-08-26T09:08:21.588Z,1.40
2022-08-26T09:10:56.104Z,0.80
2022-08-26T09:13:25.374Z,0.60
2022-08-26T09:16:10.455Z,0.75
2022-08-26T09:18:46.022Z,1.42
2022-08-26T09:21:15.267Z,0.95
2022-08-26T09:23:49.346Z,0.85
2022-08-26T09:26:35.058Z,0.85
2022-08-26T09:29:05.733Z,1.30
2022-08-26T09:31:35.848Z,0.65
2022-08-26T09:34:19.781Z,0.93
2022-08-26T09:36:54.687Z,0.88
2022-08-26T09:39:24.202Z,1.10
2022-08-26T09:42:08.038Z,0.75
2022-08-26T09:44:59.617Z,0.70
2022-08-26T09:50:29.169Z,0.65
2022-08-26T09:53:16.534Z,1.33
2022-08-26T09:55:48.458Z,0.93
2022-08-26T09:58:31.649Z,0.95
2022-08-26T10:01:03.299Z,1.85
2022-08-26T10:03:35.718Z,0.88
2022-08-26T10:06:08.337Z,1.38
2022-08-26T10:08:47.477Z,0.73
2022-08-26T10:11:30.524Z,1.25
2022-08-26T10:14:05.035Z,0.70
2022-08-26T10:17:09.547Z,1.35
2022-08-26T10:19:56.186Z,1.00
2022-08-26T10:22:47.959Z,1.00
2022-08-26T10:25:22.076Z,0.98
2022-08-26T10:28:04.482Z,0.88
2022-08-26T10:30:38.774Z,1.38
2022-08-26T10:33:12.438Z,1.73
2022-08-26T10:35:49.009Z,0.82
2022-08-26T10:38:19.064Z,1.05
2022-08-26T10:43:45.529Z,1.35
2022-08-26T10:46:17.366Z,0.52
2022-08-26T10:49:00.014Z,1.10
2022-08-26T10:51:35.578Z,1.25
2022-08-26T10:54:09.412Z,1.52
2022-08-26T10:56:57.378Z,1.10
2022-08-26T10:59:46.299Z,1.58
2022-08-26T11:02:34.126Z,1.10
2022-08-26T11:05:28.011Z,1.40
2022-08-26T11:08:20.815Z,1.92
2022-08-26T11:11:00.289Z,1.58
2022-08-26T11:14:06.047Z,1.55
2022-08-26T11:16:42.917Z,1.05
2022-08-26T11:19:50.552Z,1.48
2022-08-26T11:22:31.173Z,1.65
2022-08-26T11:24:57.820Z,0.95
2022-08-26T11:27:51.695Z,1.67
2022-08-26T11:30:21.391Z,0.95
2022-08-26T11:32:54.000Z,1.10
2022-08-26T11:35:21.862Z,1.35
2022-08-26T11:37:48.549Z,0.77
2022-08-26T11:40:20.620Z,2.15
2022-08-26T11:43:00.787Z,0.90
2022-08-26T11:45:38.930Z,1.85
2022-08-26T11:48:30.629Z,0.68
2022-08-26T11:50:57.722Z,1.23
2022-08-26T11:53:26.079Z,1.27
2022-08-26T11:55:55.914Z,1.00
2022-08-26T11:58:24.294Z,1.73
2022-08-26T12:01:03.754Z,1.50
2022-08-26T12:03:47.736Z,1.20
2022-08-26T12:06:29.230Z,1.00
2022-08-26T12:08:59.860Z,0.90
2022-08-26T12:11:33.078Z,1.10
2022-08-26T12:14:24.565Z,1.20
2022-08-26T12:16:53.638Z,1.02
2022-08-26T12:19:33.041Z,1.57
2022-08-26T12:22:03.274Z,0.90
2022-08-26T12:24:30.746Z,1.00
2022-08-26T12:27:15.982Z,1.13
2022-08-26T12:29:43.016Z,0.88
2022-08-26T12:32:17.720Z,1.17
2022-08-26T12:34:46.065Z,1.00
2022-08-26T12:37:14.413Z,1.23
2022-08-26T12:39:44.178Z,1.00
2022-08-26T12:42:15.624Z,1.08
2022-08-26T12:44:53.096Z,0.85
2022-08-26T12:47:42.164Z,1.25
2022-08-26T12:50:18.850Z,1.45
2022-08-26T12:53:04.505Z,0.93
2022-08-26T12:56:25.042Z,0.82
2022-08-26T12:59:23.828Z,1.45
2022-08-26T13:01:51.253Z,1.10
2022-08-26T13:04:41.897Z,1.20
2022-08-26T13:07:27.076Z,1.27
2022-08-26T13:09:59.031Z,1.20
2022-08-26T13:12:25.949Z,0.95
2022-08-26T13:14:53.923Z,1.80
2022-08-26T13:17:21.498Z,1.60
2022-08-26T13:19:48.475Z,1.27
2022-08-26T13:22:17.554Z,2.28
2022-08-26T13:24:44.802Z,1.30
2022-08-26T13:27:13.738Z,2.30
2022-08-26T13:29:41.530Z,1.27
2022-08-26T13:32:09.145Z,1.15
2022-08-26T13:34:37.194Z,0.73
2022-08-26T13:37:04.788Z,0.98
2022-08-26T13:39:32.121Z,0.70
2022-08-26T13:41:59.146Z,0.93
2022-08-26T13:44:25.857Z,1.13
2022-08-26T13:46:52.743Z,1.48
2022-08-26T13:49:19.416Z,1.13
2022-08-26T13:51:46.137Z,1.15
2022-08-26T13:54:14.559Z,1.48
2022-08-26T13:56:41.425Z,1.27
2022-08-26T13:59:08.170Z,0.95
2022-08-26T14:01:35.854Z,1.17
2022-08-26T14:04:03.286Z,1.67
2022-08-26T14:06:30.370Z,1.00
2022-08-26T14:08:57.267Z,1.25
2022-08-26T14:11:25.089Z,0.70
2022-08-26T14:13:52.379Z,1.75
2022-08-26T14:16:24.192Z,1.20
2022-08-26T14:18:51.489Z,0.95
2022-08-26T14:21:18.535Z,1.05
2022-08-26T14:23:45.325Z,1.17
2022-08-26T14:26:21.219Z,1.10
2022-08-26T14:28:55.629Z,1.05
2022-08-26T14:31:23.867Z,1.38
2022-08-26T14:33:50.829Z,1.25
2022-08-26T14:36:29.414Z,0.73
2022-08-26T14:38:58.183Z,2.15
2022-08-26T14:41:25.428Z,1.40
2022-08-26T14:44:00.196Z,1.70
2022-08-26T14:46:32.265Z,1.17
2022-08-26T14:49:01.487Z,1.27
2022-08-26T14:51:29.853Z,1.02
2022-08-26T14:54:12.501Z,0.70
2022-08-26T14:57:00.481Z,0.80
2022-08-26T14:59:33.842Z,1.10
2022-08-26T15:02:01.038Z,1.38
2022-08-26T15:04:28.827Z,1.02
2022-08-26T15:06:58.642Z,0.50
2022-08-26T15:09:26.324Z,1.17
2022-08-26T15:11:54.641Z,0.98
2022-08-26T15:14:21.937Z,0.60
2022-08-26T15:16:50.166Z,0.60
2022-08-26T15:19:18.326Z,0.70
2022-08-26T15:21:46.969Z,1.38
2022-08-26T15:24:16.026Z,0.95
2022-08-26T15:26:43.626Z,1.33
2022-08-26T15:29:10.473Z,0.57
2022-08-26T15:31:37.586Z,0.70
2022-08-26T15:34:06.990Z,1.02
2022-08-26T15:36:34.565Z,0.75
2022-08-26T15:39:01.778Z,1.25
2022-08-26T15:41:29.504Z,1.08
2022-08-26T15:43:57.572Z,1.35
2022-08-26T15:46:25.158Z,0.98
2022-08-26T15:48:52.225Z,0.80
2022-08-26T15:51:24.811Z,0.70
2022-08-26T15:53:52.626Z,0.80
2022-08-26T15:56:19.836Z,0.80
2022-08-26T15:58:47.127Z,0.82
2022-08-26T16:01:27.762Z,0.95
2022-08-26T16:03:58.187Z,0.93
2022-08-26T16:06:27.737Z,0.98
2022-08-26T16:08:56.104Z,0.82
2022-08-26T16:11:23.818Z,0.57
2022-08-26T16:13:51.311Z,1.27
2022-08-26T16:16:19.407Z,0.63
2022-08-26T16:18:47.633Z,0.57
2022-08-26T16:21:19.494Z,0.57
2022-08-26T16:23:47.630Z,0.80
2022-08-26T16:26:17.448Z,0.70
2022-08-26T16:28:44.526Z,0.65
2022-08-26T16:31:11.411Z,0.45
2022-08-26T16:33:38.283Z,1.13
2022-08-26T16:36:05.862Z,0.40
2022-08-26T16:38:33.445Z,0.60
2022-08-26T16:41:01.163Z,0.60
2022-08-26T16:43:28.379Z,0.90
2022-08-26T16:45:55.957Z,1.13
2022-08-26T16:48:23.761Z,1.88
2022-08-26T16:50:51.667Z,1.40
2022-08-26T16:53:19.024Z,1.25
2022-08-26T16:55:47.815Z,0.60
2022-08-26T16:58:14.978Z,0.73
2022-08-26T17:00:42.266Z,0.80
2022-08-26T17:03:10.044Z,0.98
2022-08-26T17:05:37.142Z,0.88
2022-08-26T17:08:05.025Z,0.47
2022-08-26T17:10:32.822Z,0.68
2022-08-26T17:13:00.354Z,0.40
2022-08-26T17:15:27.169Z,0.43
2022-08-26T17:17:54.715Z,0.40
2022-08-26T17:20:22.826Z,1.67
2022-08-26T17:22:51.019Z,0.60
2022-08-26T17:25:30.358Z,0.50
2022-08-26T17:27:57.757Z,0.45
2022-08-26T17:30:25.849Z,0.60
2022-08-26T17:32:54.627Z,0.40
2022-08-26T17:35:22.151Z,0.68
2022-08-26T17:37:49.114Z,0.57
2022-08-26T17:40:19.180Z,0.70
2022-08-26T17:45:13.164Z,0.77
2022-08-26T17:47:41.185Z,0.45
2022-08-26T17:50:10.865Z,0.30
2022-08-26T17:52:38.522Z,0.73
2022-08-26T17:55:07.089Z,0.20
2022-08-26T17:57:40.451Z,0.47
2022-08-26T18:00:11.257Z,0.57
2022-08-26T18:02:38.829Z,0.40
2022-08-26T18:05:06.770Z,0.30
2022-08-26T18:07:33.668Z,0.77
2022-08-26T18:10:13.482Z,0.38
2022-08-26T18:12:41.452Z,0.50
2022-08-26T18:15:09.427Z,0.47
2022-08-26T18:17:36.395Z,0.40
2022-08-26T18:20:03.737Z,0.40
2022-08-26T18:22:30.510Z,0.47
2022-08-26T18:24:59.432Z,0.60
2022-08-26T18:27:26.565Z,0.30
2022-08-26T18:29:54.600Z,0.20
2022-08-26T18:32:21.604Z,0.40
2022-08-26T18:34:48.483Z,0.40
2022-08-26T18:37:17.982Z,0.45
2022-08-26T18:39:45.030Z,0.40
2022-08-26T18:42:11.814Z,0.60
2022-08-26T18:44:38.620Z,0.40
2022-08-26T18:47:05.462Z,0.50
2022-08-26T18:49:32.392Z,0.30
2022-08-26T18:51:59.178Z,0.20
2022-08-26T18:54:25.960Z,0.40
2022-08-26T18:56:53.047Z,1.10
2022-08-26T18:59:19.858Z,0.20
2022-08-26T19:01:56.487Z,0.60
2022-08-26T19:04:23.316Z,0.20
2022-08-26T19:06:53.515Z,0.20
2022-08-26T19:11:49.605Z,0.32
2022-08-26T19:14:17.479Z,0.30
2022-08-26T19:16:52.645Z,0.73
2022-08-26T19:19:21.153Z,0.20
2022-08-26T19:21:47.987Z,0.30
2022-08-26T19:24:17.683Z,0.45
2022-08-26T19:26:47.654Z,0.57
2022-08-26T19:29:15.579Z,0.45
2022-08-26T19:31:44.068Z,0.30
2022-08-26T19:34:13.214Z,0.63
2022-08-26T19:36:44.760Z,0.30
2022-08-26T19:39:13.538Z,0.52
2022-08-26T19:41:40.890Z,0.35
2022-08-26T19:44:11.464Z,0.20
2022-08-26T19:49:10.037Z,0.45
2022-08-26T19:51:36.923Z,0.20
2022-08-26T19:54:04.382Z,0.30
2022-08-26T19:56:31.676Z,0.65
2022-08-26T19:58:58.608Z,0.32
2022-08-26T20:01:25.814Z,0.70
2022-08-26T20:03:53.059Z,0.47
2022-08-26T20:06:20.204Z,0.20
2022-08-26T20:08:47.266Z,0.65
2022-08-26T20:11:16.255Z,0.40
2022-08-26T20:13:43.878Z,0.20
2022-08-26T20:16:12.075Z,0.20
2022-08-26T20:19:01.737Z,0.63
2022-08-26T20:21:31.616Z,0.22
2022-08-26T20:24:04.582Z,0.38
2022-08-26T20:26:34.653Z,0.30
2022-08-26T20:29:01.444Z,0.30
2022-08-26T20:31:28.874Z,0.38
2022-08-26T20:33:55.989Z,0.55
2022-08-26T20:36:24.045Z,0.47
2022-08-26T20:38:50.861Z,0.20
2022-08-26T20:41:17.930Z,0.50
2022-08-26T20:43:44.843Z,0.17
2022-08-26T20:46:18.056Z,0.35
2022-08-26T20:48:47.810Z,0.20
2022-08-26T20:51:15.456Z,0.20
2022-08-26T20:53:42.569Z,0.20
2022-08-26T20:56:10.602Z,0.28
2022-08-26T20:58:38.735Z,0.30
2022-08-26T21:01:08.045Z,0.80
2022-08-26T21:03:36.218Z,0.30
2022-08-26T21:06:03.797Z,0.35
2022-08-26T21:08:33.367Z,0.40
2022-08-26T21:11:00.847Z,0.28
2022-08-26T21:13:35.796Z,0.60
2022-08-26T21:16:10.140Z,0.57
2022-08-26T21:18:37.053Z,0.20
2022-08-26T21:21:06.356Z,0.40
2022-08-26T21:23:33.483Z,0.20
2022-08-26T21:26:09.395Z,0.20
2022-08-26T21:28:36.879Z,0.70
2022-08-26T21:31:05.287Z,0.35
2022-08-26T21:33:32.305Z,0.52
2022-08-26T21:35:59.421Z,0.20
2022-08-26T21:38:26.254Z,0.25
2022-08-26T21:40:58.486Z,0.63
2022-08-26T21:43:35.020Z,0.20
2022-08-26T21:46:14.578Z,0.77
2022-08-26T21:48:54.001Z,0.40
2022-08-26T21:51:23.422Z,0.40
2022-08-26T21:53:52.782Z,0.63
2022-08-26T21:56:20.838Z,0.40
2022-08-26T21:58:47.805Z,0.22
2022-08-26T22:01:17.768Z,0.50
2022-08-26T22:03:47.590Z,0.40
2022-08-26T22:06:19.230Z,0.38
2022-08-26T22:08:46.087Z,0.20
2022-08-26T22:11:13.491Z,0.70
2022-08-26T22:13:41.567Z,0.30
2022-08-26T22:16:09.511Z,0.57
2022-08-26T22:18:36.811Z,0.20
2022-08-26T22:21:08.434Z,0.35
2022-08-26T22:23:36.830Z,0.30
2022-08-26T22:26:06.011Z,0.93
2022-08-26T22:28:32.977Z,0.33
2022-08-26T22:30:59.622Z,0.60
2022-08-26T22:33:26.400Z,0.63
2022-08-26T22:35:53.823Z,0.13
2022-08-26T22:38:20.907Z,0.40
2022-08-26T22:40:50.781Z,0.90
2022-08-26T22:43:18.990Z,0.40
2022-08-26T22:45:47.617Z,0.57
2022-08-26T22:48:17.464Z,0.90
2022-08-26T22:50:46.366Z,0.57
2022-08-26T22:53:14.241Z,0.40
2022-08-26T22:55:41.345Z,0.32
2022-08-26T22:58:08.545Z,0.40
2022-08-26T23:00:36.202Z,0.60
2022-08-26T23:03:04.604Z,0.43
2022-08-26T23:05:32.522Z,0.45
2022-08-26T23:07:59.716Z,0.60
2022-08-26T23:10:26.877Z,0.32
2022-08-26T23:12:54.001Z,0.30
2022-08-26T23:15:22.003Z,0.30
2022-08-26T23:17:51.377Z,0.57
2022-08-26T23:20:27.026Z,0.20
2022-08-26T23:22:54.772Z,0.20
2022-08-26T23:25:22.186Z,0.40
2022-08-26T23:27:51.675Z,1.33
2022-08-26T23:30:21.555Z,0.35
2022-08-26T23:32:49.088Z,0.30
2022-08-26T23:35:21.586Z,0.52
2022-08-26T23:37:53.087Z,0.63
2022-08-26T23:40:35.196Z,0.50
2022-08-26T23:43:04.986Z,0.20
2022-08-26T23:45:33.243Z,0.50
2022-08-26T23:48:00.637Z,0.25
2022-08-26T23:50:49.299Z,0.40
2022-08-26T23:53:20.613Z,0.77
2022-08-26T23:55:50.271Z,0.20
2022-08-26T23:58:19.352Z,0.40
